sensor_id;sensor_type;location;lat;lon;timestamp;temperature;humidity
35796;DHT22;21916;52.428;13.302;2023-03-01T00:01:48;-0.70;99.90
35796;DHT22;21916;52.428;13.302;2023-03-01T00:04:14;-0.80;99.90
35796;DHT22;21916;52.428;13.302;2023-03-01T00:06:42;-1.00;99.90
35796;DHT22;21916;52.428;13.302;2023-03-01T00:09:12;-1.10;99.90
35796;DHT22;21916;52.428;13.302;2023-03-01T00:11:38;-1.10;99.90
35796;DHT22;21916;52.428;13.302;2023-03-01T00:14:04;-1.00;99.90
35796;DHT22;21916;52.428;13.302;2023-03-01T00:16:37;-1.00;99.90
35796;DHT22;21916;52.428;13.302;2023-03-01T00:19:08;-1.00;99.90
35796;DHT22;21916;52.428;13.302;2023-03-01T00:21:35;-1.10;99.90
35796;DHT22;21916;52.428;13.302;2023-03-01T00:24:02;-1.00;99.90
35796;DHT22;21916;52.428;13.302;2023-03-01T00:26:28;-1.00;99.90
35796;DHT22;21916;52.428;13.302;2023-03-01T00:28:54;-1.00;99.90
35796;DHT22;21916;52.428;13.302;2023-03-01T00:31:26;-1.20;99.90
35796;DHT22;21916;52.428;13.302;2023-03-01T00:33:54;-1.20;99.90
35796;DHT22;21916;52.428;13.302;2023-03-01T00:36:25;-1.30;99.90
35796;DHT22;21916;52.428;13.302;2023-03-01T00:38:52;-1.30;99.90
35796;DHT22;21916;52.428;13.302;2023-03-01T00:41:20;-1.30;99.90
35796;DHT22;21916;52.428;13.302;2023-03-01T00:43:49;-1.20;99.90
35796;DHT22;21916;52.428;13.302;2023-03-01T00:46:20;-1.30;99.90
35796;DHT22;21916;52.428;13.302;2023-03-01T00:48:46;-1.30;99.90
35796;DHT22;21916;52.428;13.302;2023-03-01T00:51:15;-1.30;99.90
35796;DHT22;21916;52.428;13.302;2023-03-01T00:53:43;-1.40;99.90
35796;DHT22;21916;52.428;13.302;2023-03-01T00:56:10;-1.40;99.90
35796;DHT22;21916;52.428;13.302;2023-03-01T00:58:37;-1.60;99.90
35796;DHT22;21916;52.428;13.302;2023-03-01T01:01:15;-1.70;99.90
35796;DHT22;21916;52.428;13.302;2023-03-01T01:06:19;-1.70;99.90
35796;DHT22;21916;52.428;13.302;2023-03-01T01:08:45;-1.50;99.90
35796;DHT22;21916;52.428;13.302;2023-03-01T01:11:11;-1.40;99.90
35796;DHT22;21916;52.428;13.302;2023-03-01T01:13:38;-1.40;99.90
35796;DHT22;21916;52.428;13.302;2023-03-01T01:16:05;-1.50;99.90
35796;DHT22;21916;52.428;13.302;2023-03-01T01:18:31;-1.60;99.90
35796;DHT22;21916;52.428;13.302;2023-03-01T01:20:56;-1.60;99.90
35796;DHT22;21916;52.428;13.302;2023-03-01T01:23:22;-1.80;99.90
35796;DHT22;21916;52.428;13.302;2023-03-01T01:25:48;-1.70;99.90
35796;DHT22;21916;52.428;13.302;2023-03-01T01:28:14;-1.60;99.90
35796;DHT22;21916;52.428;13.302;2023-03-01T01:30:40;-1.60;99.90
35796;DHT22;21916;52.428;13.302;2023-03-01T01:33:06;-1.60;99.90
35796;DHT22;21916;52.428;13.302;2023-03-01T01:35:31;-1.60;99.90
35796;DHT22;21916;52.428;13.302;2023-03-01T01:37:57;-1.70;99.90
35796;DHT22;21916;52.428;13.302;2023-03-01T01:40:23;-1.90;99.90
35796;DHT22;21916;52.428;13.302;2023-03-01T01:42:49;-2.10;99.90
35796;DHT22;21916;52.428;13.302;2023-03-01T01:45:35;-2.10;99.90
35796;DHT22;21916;52.428;13.302;2023-03-01T01:48:10;-2.20;99.90
35796;DHT22;21916;52.428;13.302;2023-03-01T01:50:39;-2.20;99.90
35796;DHT22;21916;52.428;13.302;2023-03-01T01:53:12;-2.10;99.90
35796;DHT22;21916;52.428;13.302;2023-03-01T01:55:44;-2.00;99.90
35796;DHT22;21916;52.428;13.302;2023-03-01T01:58:13;-2.00;99.90
35796;DHT22;21916;52.428;13.302;2023-03-01T02:00:41;-2.10;99.90
35796;DHT22;21916;52.428;13.302;2023-03-01T02:03:10;-2.30;99.90
35796;DHT22;21916;52.428;13.302;2023-03-01T02:08:11;-2.40;99.90
35796;DHT22;21916;52.428;13.302;2023-03-01T02:10:38;-2.40;99.90
35796;DHT22;21916;52.428;13.302;2023-03-01T02:13:05;-2.50;99.90
35796;DHT22;21916;52.428;13.302;2023-03-01T02:15:36;-2.40;99.90
35796;DHT22;21916;52.428;13.302;2023-03-01T02:18:04;-2.30;99.90
35796;DHT22;21916;52.428;13.302;2023-03-01T02:23:11;-2.40;99.90
35796;DHT22;21916;52.428;13.302;2023-03-01T02:30:53;-2.20;99.90
35796;DHT22;21916;52.428;13.302;2023-03-01T02:33:39;-2.20;99.90
35796;DHT22;21916;52.428;13.302;2023-03-01T02:36:09;-2.20;99.90
35796;DHT22;21916;52.428;13.302;2023-03-01T02:38:36;-2.20;99.90
35796;DHT22;21916;52.428;13.302;2023-03-01T02:41:03;-2.10;99.90
35796;DHT22;21916;52.428;13.302;2023-03-01T02:43:31;-2.00;99.90
35796;DHT22;21916;52.428;13.302;2023-03-01T02:46:07;-2.00;99.90
35796;DHT22;21916;52.428;13.302;2023-03-01T02:48:48;-2.00;99.90
35796;DHT22;21916;52.428;13.302;2023-03-01T02:54:05;-2.30;99.90
35796;DHT22;21916;52.428;13.302;2023-03-01T02:56:34;-2.40;99.90
35796;DHT22;21916;52.428;13.302;2023-03-01T02:59:01;-2.50;99.90
35796;DHT22;21916;52.428;13.302;2023-03-01T03:01:29;-2.60;99.90
35796;DHT22;21916;52.428;13.302;2023-03-01T03:04:09;-2.60;99.90
35796;DHT22;21916;52.428;13.302;2023-03-01T03:06:36;-2.50;99.90
35796;DHT22;21916;52.428;13.302;2023-03-01T03:09:03;-2.70;99.90
35796;DHT22;21916;52.428;13.302;2023-03-01T03:11:29;-2.60;99.90
35796;DHT22;21916;52.428;13.302;2023-03-01T03:13:56;-2.60;99.90
35796;DHT22;21916;52.428;13.302;2023-03-01T03:16:23;-2.60;99.90
35796;DHT22;21916;52.428;13.302;2023-03-01T03:18:50;-2.60;99.90
35796;DHT22;21916;52.428;13.302;2023-03-01T03:21:16;-2.60;99.90
35796;DHT22;21916;52.428;13.302;2023-03-01T03:23:43;-2.60;99.90
35796;DHT22;21916;52.428;13.302;2023-03-01T03:26:09;-2.60;99.90
35796;DHT22;21916;52.428;13.302;2023-03-01T03:28:40;-2.60;99.90
35796;DHT22;21916;52.428;13.302;2023-03-01T03:31:08;-2.50;99.90
35796;DHT22;21916;52.428;13.302;2023-03-01T03:33:33;-2.30;99.90
35796;DHT22;21916;52.428;13.302;2023-03-01T03:35:59;-2.40;99.90
35796;DHT22;21916;52.428;13.302;2023-03-01T03:38:25;-2.50;99.90
35796;DHT22;21916;52.428;13.302;2023-03-01T03:41:00;-2.40;99.90
35796;DHT22;21916;52.428;13.302;2023-03-01T03:43:32;-2.40;99.90
35796;DHT22;21916;52.428;13.302;2023-03-01T03:45:59;-2.50;99.90
35796;DHT22;21916;52.428;13.302;2023-03-01T03:48:25;-2.40;99.90
35796;DHT22;21916;52.428;13.302;2023-03-01T03:50:53;-2.40;99.90
35796;DHT22;21916;52.428;13.302;2023-03-01T03:53:20;-2.40;99.90
35796;DHT22;21916;52.428;13.302;2023-03-01T03:55:47;-2.50;99.90
35796;DHT22;21916;52.428;13.302;2023-03-01T03:58:15;-2.50;99.90
35796;DHT22;21916;52.428;13.302;2023-03-01T04:00:43;-2.50;99.90
35796;DHT22;21916;52.428;13.302;2023-03-01T04:03:12;-2.60;99.90
35796;DHT22;21916;52.428;13.302;2023-03-01T04:05:39;-2.60;99.90
35796;DHT22;21916;52.428;13.302;2023-03-01T04:08:06;-2.70;99.90
35796;DHT22;21916;52.428;13.302;2023-03-01T04:10:35;-2.80;99.90
35796;DHT22;21916;52.428;13.302;2023-03-01T04:13:03;-3.00;99.90
35796;DHT22;21916;52.428;13.302;2023-03-01T04:15:30;-3.00;99.90
35796;DHT22;21916;52.428;13.302;2023-03-01T04:17:56;-3.10;99.90
35796;DHT22;21916;52.428;13.302;2023-03-01T04:20:27;-3.10;99.90
35796;DHT22;21916;52.428;13.302;2023-03-01T04:22:59;-3.10;99.90
35796;DHT22;21916;52.428;13.302;2023-03-01T04:25:34;-3.10;99.90
35796;DHT22;21916;52.428;13.302;2023-03-01T04:28:02;-3.10;99.90
35796;DHT22;21916;52.428;13.302;2023-03-01T04:30:28;-3.10;99.90
35796;DHT22;21916;52.428;13.302;2023-03-01T04:32:54;-3.10;99.90
35796;DHT22;21916;52.428;13.302;2023-03-01T04:35:20;-3.00;99.90
35796;DHT22;21916;52.428;13.302;2023-03-01T04:37:47;-2.90;99.90
35796;DHT22;21916;52.428;13.302;2023-03-01T04:40:13;-3.00;99.90
35796;DHT22;21916;52.428;13.302;2023-03-01T04:42:43;-3.00;99.90
35796;DHT22;21916;52.428;13.302;2023-03-01T04:45:09;-3.00;99.90
35796;DHT22;21916;52.428;13.302;2023-03-01T04:47:42;-3.00;99.90
35796;DHT22;21916;52.428;13.302;2023-03-01T04:50:15;-3.10;99.90
35796;DHT22;21916;52.428;13.302;2023-03-01T04:52:42;-3.30;99.90
35796;DHT22;21916;52.428;13.302;2023-03-01T04:55:09;-3.30;99.90
35796;DHT22;21916;52.428;13.302;2023-03-01T04:57:35;-3.20;99.90
35796;DHT22;21916;52.428;13.302;2023-03-01T05:00:02;-3.30;99.90
35796;DHT22;21916;52.428;13.302;2023-03-01T05:03:00;-3.30;99.90
35796;DHT22;21916;52.428;13.302;2023-03-01T05:05:32;-3.30;99.90
35796;DHT22;21916;52.428;13.302;2023-03-01T05:08:01;-3.30;99.90
35796;DHT22;21916;52.428;13.302;2023-03-01T05:10:29;-3.30;99.90
35796;DHT22;21916;52.428;13.302;2023-03-01T05:12:56;-3.40;99.90
35796;DHT22;21916;52.428;13.302;2023-03-01T05:15:23;-3.20;99.90
35796;DHT22;21916;52.428;13.302;2023-03-01T05:17:54;-3.10;99.90
35796;DHT22;21916;52.428;13.302;2023-03-01T05:20:20;-3.00;99.90
35796;DHT22;21916;52.428;13.302;2023-03-01T05:22:51;-3.00;99.90
35796;DHT22;21916;52.428;13.302;2023-03-01T05:25:17;-3.00;99.90
35796;DHT22;21916;52.428;13.302;2023-03-01T05:27:43;-2.90;99.90
35796;DHT22;21916;52.428;13.302;2023-03-01T05:30:10;-3.10;99.90
35796;DHT22;21916;52.428;13.302;2023-03-01T05:32:44;-3.30;99.90
35796;DHT22;21916;52.428;13.302;2023-03-01T05:35:15;-3.40;99.90
35796;DHT22;21916;52.428;13.302;2023-03-01T05:37:47;-3.20;99.90
35796;DHT22;21916;52.428;13.302;2023-03-01T05:40:15;-3.10;99.90
35796;DHT22;21916;52.428;13.302;2023-03-01T05:42:51;-3.20;99.90
35796;DHT22;21916;52.428;13.302;2023-03-01T05:45:18;-3.30;99.90
35796;DHT22;21916;52.428;13.302;2023-03-01T05:47:45;-3.30;99.90
35796;DHT22;21916;52.428;13.302;2023-03-01T05:50:16;-3.40;99.90
35796;DHT22;21916;52.428;13.302;2023-03-01T05:53:06;-3.40;99.90
35796;DHT22;21916;52.428;13.302;2023-03-01T05:55:35;-3.40;99.90
35796;DHT22;21916;52.428;13.302;2023-03-01T05:58:04;-3.30;99.90
35796;DHT22;21916;52.428;13.302;2023-03-01T06:00:31;-3.10;99.90
35796;DHT22;21916;52.428;13.302;2023-03-01T06:02:58;-3.10;99.90
35796;DHT22;21916;52.428;13.302;2023-03-01T06:05:24;-3.10;99.90
35796;DHT22;21916;52.428;13.302;2023-03-01T06:07:50;-3.10;99.90
35796;DHT22;21916;52.428;13.302;2023-03-01T06:10:17;-3.10;99.90
35796;DHT22;21916;52.428;13.302;2023-03-01T06:12:44;-3.20;99.90
35796;DHT22;21916;52.428;13.302;2023-03-01T06:15:15;-3.20;99.90
35796;DHT22;21916;52.428;13.302;2023-03-01T06:17:42;-2.90;99.90
35796;DHT22;21916;52.428;13.302;2023-03-01T06:20:18;-2.90;99.90
35796;DHT22;21916;52.428;13.302;2023-03-01T06:22:45;-3.00;99.90
35796;DHT22;21916;52.428;13.302;2023-03-01T06:25:13;-3.00;99.90
35796;DHT22;21916;52.428;13.302;2023-03-01T06:27:41;-3.00;99.90
35796;DHT22;21916;52.428;13.302;2023-03-01T06:30:08;-2.70;99.90
35796;DHT22;21916;52.428;13.302;2023-03-01T06:32:36;-2.60;99.90
35796;DHT22;21916;52.428;13.302;2023-03-01T06:35:04;-2.60;99.90
35796;DHT22;21916;52.428;13.302;2023-03-01T06:37:30;-2.50;99.90
35796;DHT22;21916;52.428;13.302;2023-03-01T06:39:56;-2.40;99.90
35796;DHT22;21916;52.428;13.302;2023-03-01T06:42:22;-2.30;99.90
35796;DHT22;21916;52.428;13.302;2023-03-01T06:44:48;-2.20;99.90
35796;DHT22;21916;52.428;13.302;2023-03-01T06:47:13;-2.10;99.90
35796;DHT22;21916;52.428;13.302;2023-03-01T06:49:39;-2.00;99.90
35796;DHT22;21916;52.428;13.302;2023-03-01T06:52:06;-1.90;99.90
35796;DHT22;21916;52.428;13.302;2023-03-01T06:54:32;-1.80;99.90
35796;DHT22;21916;52.428;13.302;2023-03-01T06:56:57;-1.60;99.90
35796;DHT22;21916;52.428;13.302;2023-03-01T06:59:23;-1.50;99.90
35796;DHT22;21916;52.428;13.302;2023-03-01T07:01:50;-1.30;99.90
35796;DHT22;21916;52.428;13.302;2023-03-01T07:04:16;-1.20;99.90
35796;DHT22;21916;52.428;13.302;2023-03-01T07:06:42;-1.00;99.90
35796;DHT22;21916;52.428;13.302;2023-03-01T07:09:08;-0.80;99.90
35796;DHT22;21916;52.428;13.302;2023-03-01T07:11:34;-0.70;99.90
35796;DHT22;21916;52.428;13.302;2023-03-01T07:14:00;-0.50;99.90
35796;DHT22;21916;52.428;13.302;2023-03-01T07:16:26;-0.30;99.90
35796;DHT22;21916;52.428;13.302;2023-03-01T07:18:52;-0.20;99.90
35796;DHT22;21916;52.428;13.302;2023-03-01T07:21:18;-0.10;99.90
35796;DHT22;21916;52.428;13.302;2023-03-01T07:23:47;0.10;99.90
35796;DHT22;21916;52.428;13.302;2023-03-01T07:26:13;0.30;99.90
35796;DHT22;21916;52.428;13.302;2023-03-01T07:28:39;0.50;99.90
35796;DHT22;21916;52.428;13.302;2023-03-01T07:31:05;0.70;99.90
35796;DHT22;21916;52.428;13.302;2023-03-01T07:33:32;0.90;99.90
35796;DHT22;21916;52.428;13.302;2023-03-01T07:36:00;1.10;99.90
35796;DHT22;21916;52.428;13.302;2023-03-01T07:38:27;1.20;99.90
35796;DHT22;21916;52.428;13.302;2023-03-01T07:40:53;1.40;99.90
35796;DHT22;21916;52.428;13.302;2023-03-01T07:43:19;1.60;99.90
35796;DHT22;21916;52.428;13.302;2023-03-01T07:45:46;1.80;99.90
35796;DHT22;21916;52.428;13.302;2023-03-01T07:48:12;1.90;99.90
35796;DHT22;21916;52.428;13.302;2023-03-01T07:50:38;2.00;99.90
35796;DHT22;21916;52.428;13.302;2023-03-01T07:53:04;2.00;99.90
35796;DHT22;21916;52.428;13.302;2023-03-01T07:55:30;2.20;99.90
35796;DHT22;21916;52.428;13.302;2023-03-01T07:57:56;2.30;99.90
35796;DHT22;21916;52.428;13.302;2023-03-01T08:00:22;2.50;99.90
35796;DHT22;21916;52.428;13.302;2023-03-01T08:02:48;2.70;99.90
35796;DHT22;21916;52.428;13.302;2023-03-01T08:05:14;2.80;99.90
35796;DHT22;21916;52.428;13.302;2023-03-01T08:07:40;2.70;99.90
35796;DHT22;21916;52.428;13.302;2023-03-01T08:10:06;2.90;99.90
35796;DHT22;21916;52.428;13.302;2023-03-01T08:12:32;3.00;99.90
35796;DHT22;21916;52.428;13.302;2023-03-01T08:14:58;3.20;99.90
35796;DHT22;21916;52.428;13.302;2023-03-01T08:17:24;3.30;99.90
35796;DHT22;21916;52.428;13.302;2023-03-01T08:19:50;3.10;99.90
35796;DHT22;21916;52.428;13.302;2023-03-01T08:22:15;3.10;99.90
35796;DHT22;21916;52.428;13.302;2023-03-01T08:24:41;3.30;99.90
35796;DHT22;21916;52.428;13.302;2023-03-01T08:27:08;3.30;99.90
35796;DHT22;21916;52.428;13.302;2023-03-01T08:29:34;3.50;99.90
35796;DHT22;21916;52.428;13.302;2023-03-01T08:32:00;3.70;99.90
35796;DHT22;21916;52.428;13.302;2023-03-01T08:34:26;3.80;99.90
35796;DHT22;21916;52.428;13.302;2023-03-01T08:36:52;3.90;99.90
35796;DHT22;21916;52.428;13.302;2023-03-01T08:39:19;4.00;99.90
35796;DHT22;21916;52.428;13.302;2023-03-01T08:41:46;4.20;99.90
35796;DHT22;21916;52.428;13.302;2023-03-01T08:44:14;4.40;99.90
35796;DHT22;21916;52.428;13.302;2023-03-01T08:46:42;4.30;99.90
35796;DHT22;21916;52.428;13.302;2023-03-01T08:49:14;4.30;99.90
35796;DHT22;21916;52.428;13.302;2023-03-01T08:51:41;4.30;99.90
35796;DHT22;21916;52.428;13.302;2023-03-01T08:54:12;4.40;99.90
35796;DHT22;21916;52.428;13.302;2023-03-01T08:56:38;4.40;99.90
35796;DHT22;21916;52.428;13.302;2023-03-01T08:59:04;4.40;99.90
35796;DHT22;21916;52.428;13.302;2023-03-01T09:01:30;4.40;99.90
35796;DHT22;21916;52.428;13.302;2023-03-01T09:03:56;4.50;99.90
35796;DHT22;21916;52.428;13.302;2023-03-01T09:06:23;4.70;99.90
35796;DHT22;21916;52.428;13.302;2023-03-01T09:08:50;4.60;99.90
35796;DHT22;21916;52.428;13.302;2023-03-01T09:11:19;4.40;99.90
35796;DHT22;21916;52.428;13.302;2023-03-01T09:13:46;4.60;99.90
35796;DHT22;21916;52.428;13.302;2023-03-01T09:16:14;4.60;99.90
35796;DHT22;21916;52.428;13.302;2023-03-01T09:18:42;4.60;99.90
35796;DHT22;21916;52.428;13.302;2023-03-01T09:21:10;4.80;99.90
35796;DHT22;21916;52.428;13.302;2023-03-01T09:23:40;5.00;99.90
35796;DHT22;21916;52.428;13.302;2023-03-01T09:26:07;5.10;99.90
35796;DHT22;21916;52.428;13.302;2023-03-01T09:28:35;5.10;99.90
35796;DHT22;21916;52.428;13.302;2023-03-01T09:31:02;5.20;99.90
35796;DHT22;21916;52.428;13.302;2023-03-01T09:33:29;5.40;99.90
35796;DHT22;21916;52.428;13.302;2023-03-01T09:36:01;5.60;99.20
35796;DHT22;21916;52.428;13.302;2023-03-01T09:38:28;5.60;98.30
35796;DHT22;21916;52.428;13.302;2023-03-01T09:40:54;5.80;98.50
35796;DHT22;21916;52.428;13.302;2023-03-01T09:43:25;5.80;99.10
35796;DHT22;21916;52.428;13.302;2023-03-01T09:45:53;6.00;98.50
35796;DHT22;21916;52.428;13.302;2023-03-01T09:48:24;6.10;97.70
35796;DHT22;21916;52.428;13.302;2023-03-01T09:50:51;6.20;97.10
35796;DHT22;21916;52.428;13.302;2023-03-01T09:53:31;6.10;97.40
35796;DHT22;21916;52.428;13.302;2023-03-01T09:56:24;6.30;97.80
35796;DHT22;21916;52.428;13.302;2023-03-01T09:58:58;6.40;96.20
35796;DHT22;21916;52.428;13.302;2023-03-01T10:01:46;6.30;95.80
35796;DHT22;21916;52.428;13.302;2023-03-01T10:07:00;6.30;97.60
35796;DHT22;21916;52.428;13.302;2023-03-01T10:09:32;6.60;97.30
35796;DHT22;21916;52.428;13.302;2023-03-01T10:12:01;6.90;97.00
35796;DHT22;21916;52.428;13.302;2023-03-01T10:15:09;7.10;96.60
35796;DHT22;21916;52.428;13.302;2023-03-01T10:17:47;7.10;94.20
35796;DHT22;21916;52.428;13.302;2023-03-01T10:20:21;7.10;95.10
35796;DHT22;21916;52.428;13.302;2023-03-01T10:22:48;6.90;94.20
35796;DHT22;21916;52.428;13.302;2023-03-01T10:27:55;6.80;94.90
35796;DHT22;21916;52.428;13.302;2023-03-01T10:30:38;7.00;94.30
35796;DHT22;21916;52.428;13.302;2023-03-01T10:33:21;7.30;93.70
35796;DHT22;21916;52.428;13.302;2023-03-01T10:35:47;7.30;93.60
35796;DHT22;21916;52.428;13.302;2023-03-01T10:38:15;7.30;93.00
35796;DHT22;21916;52.428;13.302;2023-03-01T10:41:04;7.50;94.30
35796;DHT22;21916;52.428;13.302;2023-03-01T10:43:57;7.80;92.90
35796;DHT22;21916;52.428;13.302;2023-03-01T10:46:37;8.20;93.20
35796;DHT22;21916;52.428;13.302;2023-03-01T10:49:21;8.10;92.30
35796;DHT22;21916;52.428;13.302;2023-03-01T10:51:49;8.10;92.10
35796;DHT22;21916;52.428;13.302;2023-03-01T10:56:52;9.00;92.00
35796;DHT22;21916;52.428;13.302;2023-03-01T11:02:15;10.10;90.00
35796;DHT22;21916;52.428;13.302;2023-03-01T11:07:26;10.60;89.60
35796;DHT22;21916;52.428;13.302;2023-03-01T11:09:52;10.90;86.10
35796;DHT22;21916;52.428;13.302;2023-03-01T11:12:19;11.40;84.20
35796;DHT22;21916;52.428;13.302;2023-03-01T11:14:48;12.00;83.00
35796;DHT22;21916;52.428;13.302;2023-03-01T11:22:53;16.30;70.30
35796;DHT22;21916;52.428;13.302;2023-03-01T11:25:24;16.50;64.80
35796;DHT22;21916;52.428;13.302;2023-03-01T11:27:52;17.10;61.70
35796;DHT22;21916;52.428;13.302;2023-03-01T11:30:20;18.00;60.20
35796;DHT22;21916;52.428;13.302;2023-03-01T11:35:25;20.10;56.50
35796;DHT22;21916;52.428;13.302;2023-03-01T11:38:24;21.10;52.80
35796;DHT22;21916;52.428;13.302;2023-03-01T11:41:06;22.10;50.20
35796;DHT22;21916;52.428;13.302;2023-03-01T11:44:16;23.20;48.40
35796;DHT22;21916;52.428;13.302;2023-03-01T11:46:49;23.60;46.50
35796;DHT22;21916;52.428;13.302;2023-03-01T11:49:44;24.60;45.40
35796;DHT22;21916;52.428;13.302;2023-03-01T12:00:55;25.50;42.00
35796;DHT22;21916;52.428;13.302;2023-03-01T12:04:14;26.20;41.10
35796;DHT22;21916;52.428;13.302;2023-03-01T12:12:09;26.10;38.90
35796;DHT22;21916;52.428;13.302;2023-03-01T12:20:18;26.90;38.30
35796;DHT22;21916;52.428;13.302;2023-03-01T12:25:55;25.50;38.70
35796;DHT22;21916;52.428;13.302;2023-03-01T12:28:47;26.00;38.00
35796;DHT22;21916;52.428;13.302;2023-03-01T12:32:20;26.00;38.60
35796;DHT22;21916;52.428;13.302;2023-03-01T12:37:22;25.90;38.00
35796;DHT22;21916;52.428;13.302;2023-03-01T12:51:26;28.60;35.30
35796;DHT22;21916;52.428;13.302;2023-03-01T12:53:55;28.40;35.80
35796;DHT22;21916;52.428;13.302;2023-03-01T12:56:23;27.80;35.90
35796;DHT22;21916;52.428;13.302;2023-03-01T13:01:56;27.80;35.30
35796;DHT22;21916;52.428;13.302;2023-03-01T13:04:51;28.40;35.70
35796;DHT22;21916;52.428;13.302;2023-03-01T13:07:44;28.50;35.20
35796;DHT22;21916;52.428;13.302;2023-03-01T13:15:32;26.40;35.10
35796;DHT22;21916;52.428;13.302;2023-03-01T13:20:59;25.40;34.70
35796;DHT22;21916;52.428;13.302;2023-03-01T13:23:47;25.60;34.90
35796;DHT22;21916;52.428;13.302;2023-03-01T13:26:16;25.00;35.50
35796;DHT22;21916;52.428;13.302;2023-03-01T13:33:47;22.20;36.80
35796;DHT22;21916;52.428;13.302;2023-03-01T13:54:53;24.00;36.00
35796;DHT22;21916;52.428;13.302;2023-03-01T13:57:26;24.60;35.50
35796;DHT22;21916;52.428;13.302;2023-03-01T13:59:54;25.10;35.00
35796;DHT22;21916;52.428;13.302;2023-03-01T14:02:19;25.60;35.30
35796;DHT22;21916;52.428;13.302;2023-03-01T14:04:56;26.60;35.50
35796;DHT22;21916;52.428;13.302;2023-03-01T14:07:24;26.70;34.20
35796;DHT22;21916;52.428;13.302;2023-03-01T14:09:54;26.70;34.50
35796;DHT22;21916;52.428;13.302;2023-03-01T14:15:02;26.00;34.90
35796;DHT22;21916;52.428;13.302;2023-03-01T14:17:55;24.50;34.70
35796;DHT22;21916;52.428;13.302;2023-03-01T14:20:30;23.80;35.30
35796;DHT22;21916;52.428;13.302;2023-03-01T14:22:59;23.40;35.40
35796;DHT22;21916;52.428;13.302;2023-03-01T14:25:33;24.10;35.60
35796;DHT22;21916;52.428;13.302;2023-03-01T14:30:53;25.30;35.10
35796;DHT22;21916;52.428;13.302;2023-03-01T14:33:20;25.70;34.70
35796;DHT22;21916;52.428;13.302;2023-03-01T14:36:01;26.30;34.30
35796;DHT22;21916;52.428;13.302;2023-03-01T14:41:08;26.20;33.80
35796;DHT22;21916;52.428;13.302;2023-03-01T14:43:36;26.30;35.10
35796;DHT22;21916;52.428;13.302;2023-03-01T14:46:03;26.00;34.10
35796;DHT22;21916;52.428;13.302;2023-03-01T14:48:30;26.20;33.50
35796;DHT22;21916;52.428;13.302;2023-03-01T14:50:56;26.60;33.60
35796;DHT22;21916;52.428;13.302;2023-03-01T14:53:28;26.10;33.50
35796;DHT22;21916;52.428;13.302;2023-03-01T14:55:56;26.20;33.70
35796;DHT22;21916;52.428;13.302;2023-03-01T14:58:26;27.50;33.20
35796;DHT22;21916;52.428;13.302;2023-03-01T15:00:54;27.50;33.70
35796;DHT22;21916;52.428;13.302;2023-03-01T15:03:31;27.50;33.40
35796;DHT22;21916;52.428;13.302;2023-03-01T15:06:00;27.90;33.20
35796;DHT22;21916;52.428;13.302;2023-03-01T15:08:27;27.60;33.90
35796;DHT22;21916;52.428;13.302;2023-03-01T15:13:34;27.50;33.10
35796;DHT22;21916;52.428;13.302;2023-03-01T15:16:04;27.20;33.40
35796;DHT22;21916;52.428;13.302;2023-03-01T15:18:31;27.00;33.40
35796;DHT22;21916;52.428;13.302;2023-03-01T15:21:31;26.90;33.50
35796;DHT22;21916;52.428;13.302;2023-03-01T15:26:45;26.60;33.60
35796;DHT22;21916;52.428;13.302;2023-03-01T15:29:21;26.20;33.10
35796;DHT22;21916;52.428;13.302;2023-03-01T15:31:59;26.00;33.20
35796;DHT22;21916;52.428;13.302;2023-03-01T15:34:32;25.80;33.80
35796;DHT22;21916;52.428;13.302;2023-03-01T15:37:00;26.00;34.10
35796;DHT22;21916;52.428;13.302;2023-03-01T15:39:39;26.00;34.20
35796;DHT22;21916;52.428;13.302;2023-03-01T15:42:35;25.80;34.30
35796;DHT22;21916;52.428;13.302;2023-03-01T15:45:21;25.40;34.40
35796;DHT22;21916;52.428;13.302;2023-03-01T15:47:57;25.30;34.60
35796;DHT22;21916;52.428;13.302;2023-03-01T15:50:28;25.30;35.10
35796;DHT22;21916;52.428;13.302;2023-03-01T15:52:55;24.70;35.20
35796;DHT22;21916;52.428;13.302;2023-03-01T15:55:30;23.60;35.80
35796;DHT22;21916;52.428;13.302;2023-03-01T15:58:14;21.70;37.00
35796;DHT22;21916;52.428;13.302;2023-03-01T16:00:41;20.20;38.40
35796;DHT22;21916;52.428;13.302;2023-03-01T16:03:10;18.80;39.60
35796;DHT22;21916;52.428;13.302;2023-03-01T16:05:38;17.70;41.80
35796;DHT22;21916;52.428;13.302;2023-03-01T16:08:05;16.60;42.40
35796;DHT22;21916;52.428;13.302;2023-03-01T16:10:32;15.50;44.10
35796;DHT22;21916;52.428;13.302;2023-03-01T16:12:59;14.70;45.40
35796;DHT22;21916;52.428;13.302;2023-03-01T16:15:29;14.30;46.10
35796;DHT22;21916;52.428;13.302;2023-03-01T16:17:55;13.80;47.20
35796;DHT22;21916;52.428;13.302;2023-03-01T16:20:24;13.20;49.50
35796;DHT22;21916;52.428;13.302;2023-03-01T16:22:50;12.50;50.50
35796;DHT22;21916;52.428;13.302;2023-03-01T16:25:18;11.90;50.70
35796;DHT22;21916;52.428;13.302;2023-03-01T16:27:47;11.70;52.10
35796;DHT22;21916;52.428;13.302;2023-03-01T16:30:16;11.60;53.60
35796;DHT22;21916;52.428;13.302;2023-03-01T16:32:44;11.30;53.30
35796;DHT22;21916;52.428;13.302;2023-03-01T16:35:12;10.90;54.40
35796;DHT22;21916;52.428;13.302;2023-03-01T16:37:38;10.50;55.50
35796;DHT22;21916;52.428;13.302;2023-03-01T16:40:07;10.20;55.60
35796;DHT22;21916;52.428;13.302;2023-03-01T16:42:41;9.90;56.70
35796;DHT22;21916;52.428;13.302;2023-03-01T16:45:08;9.60;57.70
35796;DHT22;21916;52.428;13.302;2023-03-01T16:47:34;9.30;57.30
35796;DHT22;21916;52.428;13.302;2023-03-01T16:50:01;9.30;57.60
35796;DHT22;21916;52.428;13.302;2023-03-01T16:52:28;9.20;57.80
35796;DHT22;21916;52.428;13.302;2023-03-01T16:54:54;8.90;58.60
35796;DHT22;21916;52.428;13.302;2023-03-01T16:57:22;8.60;59.50
35796;DHT22;21916;52.428;13.302;2023-03-01T16:59:51;8.40;59.40
35796;DHT22;21916;52.428;13.302;2023-03-01T17:02:18;8.40;61.30
35796;DHT22;21916;52.428;13.302;2023-03-01T17:04:50;8.20;59.90
35796;DHT22;21916;52.428;13.302;2023-03-01T17:07:16;8.20;60.70
35796;DHT22;21916;52.428;13.302;2023-03-01T17:09:42;8.10;61.20
35796;DHT22;21916;52.428;13.302;2023-03-01T17:12:09;8.10;60.90
35796;DHT22;21916;52.428;13.302;2023-03-01T17:14:37;8.10;60.70
35796;DHT22;21916;52.428;13.302;2023-03-01T17:17:03;7.80;62.70
35796;DHT22;21916;52.428;13.302;2023-03-01T17:19:29;7.70;62.80
35796;DHT22;21916;52.428;13.302;2023-03-01T17:21:57;7.50;62.90
35796;DHT22;21916;52.428;13.302;2023-03-01T17:24:23;7.40;63.60
35796;DHT22;21916;52.428;13.302;2023-03-01T17:26:49;7.30;65.30
35796;DHT22;21916;52.428;13.302;2023-03-01T17:29:14;7.10;63.90
35796;DHT22;21916;52.428;13.302;2023-03-01T17:31:43;6.90;64.00
35796;DHT22;21916;52.428;13.302;2023-03-01T17:34:09;7.00;67.60
35796;DHT22;21916;52.428;13.302;2023-03-01T17:36:35;6.90;66.50
35796;DHT22;21916;52.428;13.302;2023-03-01T17:39:10;6.90;67.30
35796;DHT22;21916;52.428;13.302;2023-03-01T17:41:36;7.00;66.10